Time;durP1;ratioP1;P1;durP2;ratioP2;P2;SDS_P1;SDS_P2;PMS_P1;PMS_P2;Temp;Humidity;BMP_temperature;BMP_pressure;BME280_temperature;BME280_humidity;BME280_pressure;Samples;Min_cycle;Max_cycle;Signal;HPM_P1;HPM_P2
2022/03/09 00:01:23;;;;;;;10.70;7.10;;;5.40;99.90;;;;;;4958866;28;20207;-54
2022/03/09 00:03:50;;;;;;;10.20;6.57;;;5.40;99.90;;;;;;4960914;28;20616;-55
2022/03/09 00:06:17;;;;;;;13.17;6.97;;;5.40;99.90;;;;;;4959555;28;20254;-56
2022/03/09 00:08:44;;;;;;;10.53;6.30;;;5.40;99.90;;;;;;4958947;28;20315;-55
2022/03/09 00:11:10;;;;;;;11.43;6.83;;;5.50;99.90;;;;;;4958345;28;20309;-55
2022/03/09 00:13:37;;;;;;;9.40;7.03;;;5.40;99.90;;;;;;4960951;28;20229;-56
2022/03/09 00:16:04;;;;;;;11.67;7.20;;;5.40;99.90;;;;;;4957790;28;20242;-56
2022/03/09 00:18:32;;;;;;;9.33;6.20;;;5.50;99.90;;;;;;4958976;28;20219;-55
2022/03/09 00:20:58;;;;;;;8.10;6.30;;;5.40;99.90;;;;;;4958981;28;20207;-55
2022/03/09 00:23:28;;;;;;;10.50;6.50;;;5.30;99.90;;;;;;4958482;28;20210;-55
2022/03/09 00:25:55;;;;;;;9.70;6.43;;;5.30;99.90;;;;;;4974925;28;20584;-57
2022/03/09 00:28:22;;;;;;;12.70;7.13;;;5.20;99.90;;;;;;4959678;28;20679;-55
2022/03/09 00:30:49;;;;;;;10.10;6.90;;;5.30;99.90;;;;;;4956234;28;20346;-57
2022/03/09 00:33:16;;;;;;;10.70;7.10;;;5.20;99.90;;;;;;4957683;28;20274;-56
2022/03/09 00:35:44;;;;;;;9.73;7.17;;;5.20;99.90;;;;;;4960294;28;20270;-55
2022/03/09 00:38:11;;;;;;;9.70;7.60;;;5.20;99.90;;;;;;4960012;28;20227;-55
2022/03/09 00:40:38;;;;;;;10.97;6.93;;;5.20;99.90;;;;;;4958877;28;20334;-55
2022/03/09 00:43:05;;;;;;;12.70;7.33;;;5.10;99.90;;;;;;4963513;28;20747;-55
2022/03/09 00:45:35;;;;;;;9.97;7.17;;;5.10;99.90;;;;;;4972786;28;20215;-55
2022/03/09 00:48:01;;;;;;;11.27;7.27;;;5.10;99.90;;;;;;4957139;28;20237;-55
2022/03/09 00:50:28;;;;;;;12.20;7.47;;;5.10;99.90;;;;;;4958055;28;20247;-54
2022/03/09 00:52:55;;;;;;;11.03;6.47;;;5.00;99.90;;;;;;4959390;28;20327;-55
2022/03/09 00:55:22;;;;;;;10.17;6.77;;;5.10;99.90;;;;;;4960002;28;20240;-55
2022/03/09 00:57:48;;;;;;;10.67;7.13;;;5.00;99.90;;;;;;4959648;28;20233;-57
2022/03/09 01:00:16;;;;;;;9.60;6.47;;;5.00;99.90;;;;;;4961494;28;20563;-56
2022/03/09 01:02:44;;;;;;;12.30;7.63;;;5.10;99.90;;;;;;4959423;28;20212;-55
2022/03/09 01:05:12;;;;;;;9.13;6.90;;;5.10;99.90;;;;;;4959737;28;20203;-57
2022/03/09 01:07:41;;;;;;;9.70;7.03;;;5.00;99.90;;;;;;4959652;28;20286;-55
2022/03/09 01:10:08;;;;;;;9.63;7.00;;;4.80;99.90;;;;;;4958590;28;20711;-55
2022/03/09 01:12:35;;;;;;;12.77;7.90;;;4.80;99.90;;;;;;4960607;28;20889;-55
2022/03/09 01:15:04;;;;;;;9.80;6.73;;;4.80;99.90;;;;;;4959018;28;20604;-56
2022/03/09 01:17:31;;;;;;;11.47;7.10;;;4.70;99.90;;;;;;4957959;28;20400;-55
2022/03/09 01:19:58;;;;;;;8.43;6.60;;;4.60;99.90;;;;;;4959336;28;20195;-57
2022/03/09 01:22:25;;;;;;;10.80;6.97;;;4.70;99.90;;;;;;4960416;28;20300;-54
2022/03/09 01:24:52;;;;;;;10.97;6.40;;;4.80;99.90;;;;;;4959484;28;20232;-54
2022/03/09 01:27:18;;;;;;;9.50;6.40;;;4.80;99.90;;;;;;4958972;28;21084;-56
2022/03/09 01:29:46;;;;;;;9.23;6.40;;;4.80;99.90;;;;;;4959459;28;20204;-55
2022/03/09 01:32:13;;;;;;;9.23;6.27;;;4.80;99.90;;;;;;4959146;28;20226;-55
2022/03/09 01:34:40;;;;;;;10.77;6.43;;;4.90;99.90;;;;;;4958956;28;20337;-57
2022/03/09 01:37:07;;;;;;;10.67;6.10;;;4.80;99.90;;;;;;4959369;28;20249;-55
2022/03/09 01:39:34;;;;;;;10.03;6.40;;;4.80;99.90;;;;;;4958705;28;20695;-55
2022/03/09 01:42:00;;;;;;;11.13;6.10;;;4.70;99.90;;;;;;4957068;28;20212;-54
2022/03/09 01:44:27;;;;;;;12.20;6.57;;;4.80;99.90;;;;;;4960610;28;20235;-57
2022/03/09 01:46:55;;;;;;;8.67;6.73;;;4.80;99.90;;;;;;4959327;28;20546;-55
2022/03/09 01:49:22;;;;;;;8.37;5.73;;;4.70;99.90;;;;;;4959919;28;20199;-54
2022/03/09 01:51:52;;;;;;;8.97;5.87;;;4.60;99.90;;;;;;4956361;28;20334;-55
2022/03/09 01:54:19;;;;;;;9.10;5.97;;;4.70;99.90;;;;;;4960012;28;20301;-55
2022/03/09 01:56:46;;;;;;;7.43;5.97;;;4.60;99.90;;;;;;4972607;28;20320;-54
2022/03/09 01:59:14;;;;;;;8.97;6.13;;;4.60;99.90;;;;;;4959786;28;20230;-56
2022/03/09 02:01:43;;;;;;;9.43;6.30;;;4.60;99.90;;;;;;4961927;28;20211;-55
2022/03/09 02:04:11;;;;;;;8.60;6.40;;;4.60;99.90;;;;;;4961334;28;20205;-55
2022/03/09 02:06:39;;;;;;;10.10;6.27;;;4.50;99.90;;;;;;4963089;28;20723;-57
2022/03/09 02:11:56;;;;;;;8.37;5.93;;;4.60;99.90;;;;;;4962095;28;20249;-54
2022/03/09 02:14:48;;;;;;;9.53;6.13;;;4.60;99.90;;;;;;4962221;28;20720;-57
2022/03/09 02:17:18;;;;;;;11.97;6.30;;;4.60;99.90;;;;;;4960740;28;20212;-55
2022/03/09 02:19:47;;;;;;;8.03;5.80;;;4.50;99.90;;;;;;4961879;28;20206;-55
2022/03/09 02:22:20;;;;;;;10.77;6.63;;;4.50;99.90;;;;;;4962119;28;20207;-54
2022/03/09 02:24:49;;;;;;;9.10;6.27;;;4.50;99.90;;;;;;4961696;28;20206;-56
2022/03/09 02:27:17;;;;;;;17.63;6.20;;;4.50;99.90;;;;;;4962824;28;20209;-55
2022/03/09 02:29:44;;;;;;;7.43;5.50;;;4.50;99.90;;;;;;4959413;28;20201;-56
2022/03/09 02:32:11;;;;;;;9.60;6.10;;;4.60;99.90;;;;;;4961741;28;20282;-56
2022/03/09 02:34:38;;;;;;;7.43;5.90;;;4.60;99.90;;;;;;4960641;28;20204;-56
2022/03/09 02:37:06;;;;;;;10.40;6.43;;;4.50;99.90;;;;;;4961613;28;20210;-56
2022/03/09 02:39:33;;;;;;;10.93;6.33;;;4.40;99.90;;;;;;4960320;28;20310;-55
2022/03/09 02:42:00;;;;;;;9.30;5.67;;;4.40;99.90;;;;;;4960001;28;20296;-57
2022/03/09 02:44:27;;;;;;;11.17;6.07;;;4.30;99.90;;;;;;4961186;28;20251;-55
2022/03/09 02:46:54;;;;;;;10.90;6.07;;;4.20;99.90;;;;;;4959871;28;20202;-57
2022/03/09 02:49:21;;;;;;;13.10;5.90;;;4.20;99.90;;;;;;4960574;28;20752;-54
2022/03/09 02:51:48;;;;;;;9.87;6.63;;;4.10;99.90;;;;;;4961331;28;20624;-55
2022/03/09 02:54:15;;;;;;;8.77;6.27;;;4.20;99.90;;;;;;4959909;28;20335;-55
2022/03/09 02:56:42;;;;;;;9.93;6.10;;;4.30;99.90;;;;;;4961308;28;20279;-55
2022/03/09 02:59:09;;;;;;;9.57;6.47;;;4.30;99.90;;;;;;4959778;28;20321;-56
2022/03/09 03:01:36;;;;;;;8.10;5.63;;;4.20;99.90;;;;;;4957880;28;20294;-55
2022/03/09 03:04:03;;;;;;;8.50;5.87;;;4.20;99.90;;;;;;4973981;28;20246;-57
2022/03/09 03:06:30;;;;;;;7.50;6.53;;;4.30;99.90;;;;;;4961215;28;20265;-55
2022/03/09 03:08:57;;;;;;;9.07;6.23;;;4.30;99.90;;;;;;4961233;28;20260;-57
2022/03/09 03:11:24;;;;;;;8.93;6.30;;;4.20;99.90;;;;;;4959049;28;20240;-55
2022/03/09 03:13:50;;;;;;;9.20;5.90;;;4.30;99.90;;;;;;4960676;28;20286;-55
2022/03/09 03:16:17;;;;;;;8.67;5.70;;;4.20;99.90;;;;;;4959685;28;20626;-55
2022/03/09 03:18:47;;;;;;;8.60;6.00;;;4.30;99.90;;;;;;4959202;28;20199;-55
2022/03/09 03:21:13;;;;;;;9.10;6.47;;;4.20;99.90;;;;;;4960925;28;20230;-55
2022/03/09 03:23:40;;;;;;;12.70;6.73;;;4.20;99.90;;;;;;4959477;28;20288;-61
2022/03/09 03:26:07;;;;;;;9.63;5.50;;;4.20;99.90;;;;;;4960415;28;20239;-55
2022/03/09 03:28:35;;;;;;;9.73;6.00;;;4.30;99.90;;;;;;4958502;28;20219;-57
2022/03/09 03:31:02;;;;;;;7.87;5.63;;;4.20;99.90;;;;;;4960319;28;20719;-55
2022/03/09 03:33:29;;;;;;;6.70;5.13;;;4.10;99.90;;;;;;4959188;28;20296;-56
2022/03/09 03:35:55;;;;;;;9.73;6.30;;;4.10;99.90;;;;;;4961526;28;20711;-56
2022/03/09 03:38:22;;;;;;;10.87;6.87;;;4.00;99.90;;;;;;4960020;28;20212;-56
2022/03/09 03:40:52;;;;;;;9.33;6.37;;;4.10;99.90;;;;;;4972846;28;20605;-56
2022/03/09 03:43:19;;;;;;;9.40;5.77;;;4.00;99.90;;;;;;4959499;28;20297;-55
2022/03/09 03:45:46;;;;;;;10.43;6.60;;;4.00;99.90;;;;;;4959668;28;20740;-55
2022/03/09 03:48:12;;;;;;;10.00;6.53;;;4.00;99.90;;;;;;4973882;28;20249;-57
2022/03/09 03:50:39;;;;;;;9.77;5.83;;;3.80;99.90;;;;;;4961180;28;20218;-56
2022/03/09 03:53:06;;;;;;;8.37;5.87;;;3.70;99.90;;;;;;4960962;28;20207;-56
2022/03/09 03:55:33;;;;;;;11.10;6.40;;;3.90;99.90;;;;;;4959596;28;21242;-56
2022/03/09 03:58:00;;;;;;;9.57;7.20;;;3.90;99.90;;;;;;4959925;28;20302;-55
2022/03/09 04:00:27;;;;;;;9.83;6.20;;;3.80;99.90;;;;;;4959138;28;20238;-55
2022/03/09 04:02:54;;;;;;;10.90;6.50;;;3.80;99.90;;;;;;4958554;28;20208;-55
2022/03/09 04:05:21;;;;;;;8.00;6.30;;;3.80;99.90;;;;;;4959458;28;20763;-55
2022/03/09 04:07:48;;;;;;;10.13;6.30;;;3.80;99.90;;;;;;4959245;28;20332;-55
2022/03/09 04:10:15;;;;;;;8.97;5.63;;;3.60;99.90;;;;;;4957646;28;20228;-55
2022/03/09 04:12:42;;;;;;;9.77;6.20;;;3.70;99.90;;;;;;4959292;28;20305;-54
2022/03/09 04:15:09;;;;;;;11.07;6.03;;;3.80;99.90;;;;;;4960441;28;20225;-57
2022/03/09 04:17:40;;;;;;;8.63;5.33;;;3.90;99.90;;;;;;4959251;28;20299;-56
2022/03/09 04:20:07;;;;;;;11.33;6.27;;;3.80;99.90;;;;;;4958814;28;20862;-55
2022/03/09 04:22:34;;;;;;;7.57;5.73;;;3.70;99.90;;;;;;4958549;28;20219;-55
2022/03/09 04:25:02;;;;;;;10.00;5.97;;;3.60;99.90;;;;;;4956719;28;20230;-55
2022/03/09 04:27:29;;;;;;;14.10;6.37;;;3.70;99.90;;;;;;4958302;28;20253;-54
2022/03/09 04:29:56;;;;;;;10.37;6.27;;;3.60;99.90;;;;;;4958393;28;20286;-56
2022/03/09 04:32:25;;;;;;;11.17;7.10;;;3.70;99.90;;;;;;4957232;28;20387;-55
2022/03/09 04:34:52;;;;;;;10.57;6.13;;;3.60;99.90;;;;;;4971640;28;20233;-56
2022/03/09 04:37:20;;;;;;;10.10;6.27;;;3.50;99.90;;;;;;4958911;28;20238;-56
2022/03/09 04:39:47;;;;;;;13.70;5.83;;;3.50;99.90;;;;;;4957758;28;20294;-58
2022/03/09 04:42:14;;;;;;;9.93;5.87;;;3.40;99.90;;;;;;4958330;28;20622;-55
2022/03/09 04:44:41;;;;;;;10.07;6.03;;;3.40;99.90;;;;;;4959789;28;20237;-55
2022/03/09 04:47:11;;;;;;;10.73;6.13;;;3.40;99.90;;;;;;4956071;28;20216;-57
2022/03/09 04:49:38;;;;;;;9.23;6.27;;;3.40;99.90;;;;;;4956017;28;20216;-55
2022/03/09 04:52:05;;;;;;;9.40;5.57;;;3.40;99.90;;;;;;4959221;28;20221;-54
2022/03/09 04:54:32;;;;;;;9.70;6.10;;;3.30;99.90;;;;;;4958859;28;20230;-57
2022/03/09 04:56:59;;;;;;;13.53;6.20;;;3.30;99.90;;;;;;4957676;28;20258;-57
2022/03/09 04:59:26;;;;;;;10.10;6.70;;;3.30;99.90;;;;;;4958411;28;20204;-55
2022/03/09 05:01:52;;;;;;;8.87;5.80;;;3.50;99.90;;;;;;4954093;28;20202;-54
2022/03/09 05:04:19;;;;;;;12.17;6.83;;;3.50;99.90;;;;;;4972512;28;20226;-55
2022/03/09 05:06:47;;;;;;;9.40;6.20;;;3.40;99.90;;;;;;4960431;28;20264;-56
2022/03/09 05:09:13;;;;;;;9.47;6.07;;;3.40;99.90;;;;;;4959769;28;20229;-55
2022/03/09 05:11:41;;;;;;;10.43;5.77;;;3.50;99.90;;;;;;4957236;28;20701;-54
2022/03/09 05:14:07;;;;;;;7.93;5.80;;;3.50;99.90;;;;;;4958237;28;20231;-54
2022/03/09 05:16:34;;;;;;;9.33;5.80;;;3.40;99.90;;;;;;4957968;28;20203;-54
2022/03/09 05:19:02;;;;;;;11.10;6.70;;;3.50;99.90;;;;;;4957864;28;20197;-55
2022/03/09 05:21:29;;;;;;;9.80;7.03;;;3.40;99.90;;;;;;4959107;28;20666;-57
2022/03/09 05:23:56;;;;;;;8.87;5.83;;;3.40;99.90;;;;;;4959359;28;20663;-55
2022/03/09 05:26:22;;;;;;;8.37;5.57;;;3.40;99.90;;;;;;4958273;28;20738;-56
2022/03/09 05:28:50;;;;;;;10.57;6.80;;;3.30;99.90;;;;;;4960434;28;20241;-55
2022/03/09 05:31:21;;;;;;;9.17;5.87;;;3.30;99.90;;;;;;4957624;28;20222;-57
2022/03/09 05:33:48;;;;;;;10.60;7.03;;;3.50;99.90;;;;;;4956751;28;20255;-55
2022/03/09 05:36:15;;;;;;;9.43;6.07;;;3.30;99.90;;;;;;4961830;28;20195;-54
2022/03/09 05:38:41;;;;;;;11.17;5.97;;;3.40;99.90;;;;;;4963084;28;20291;-56
2022/03/09 05:41:08;;;;;;;7.83;5.67;;;3.40;99.90;;;;;;4961352;28;20209;-55
2022/03/09 05:43:35;;;;;;;8.10;5.90;;;3.30;99.90;;;;;;4962885;28;20643;-56
2022/03/09 05:46:02;;;;;;;9.00;5.90;;;3.20;99.90;;;;;;4960977;28;20304;-56
2022/03/09 05:48:29;;;;;;;10.30;5.73;;;2.90;99.90;;;;;;4960633;28;20241;-55
2022/03/09 05:50:56;;;;;;;11.27;6.47;;;2.50;99.90;;;;;;4961462;28;20261;-55
2022/03/09 05:53:23;;;;;;;11.40;6.67;;;2.60;99.90;;;;;;4963242;28;20301;-57
2022/03/09 05:55:50;;;;;;;11.10;6.70;;;2.70;99.90;;;;;;4962242;28;20234;-56
2022/03/09 05:58:17;;;;;;;11.07;7.07;;;2.80;99.90;;;;;;4963173;28;20236;-56
2022/03/09 06:00:45;;;;;;;11.07;6.20;;;2.70;99.90;;;;;;4958832;28;20216;-55
2022/03/09 06:03:12;;;;;;;7.97;6.07;;;2.70;99.90;;;;;;4961502;28;20653;-55
2022/03/09 06:05:39;;;;;;;11.47;6.60;;;2.70;99.90;;;;;;4962174;28;20203;-55
2022/03/09 06:08:06;;;;;;;9.13;6.07;;;2.70;99.90;;;;;;4977811;28;20220;-55
2022/03/09 06:10:33;;;;;;;10.23;5.93;;;2.80;99.90;;;;;;4961124;28;20362;-57
2022/03/09 06:13:00;;;;;;;9.37;6.13;;;2.80;99.90;;;;;;4961090;28;20240;-55
2022/03/09 06:15:26;;;;;;;9.70;6.53;;;2.60;99.90;;;;;;4962131;28;20223;-56
2022/03/09 06:17:53;;;;;;;9.67;6.13;;;2.60;99.90;;;;;;4960301;28;20292;-56
2022/03/09 06:20:22;;;;;;;13.37;6.67;;;2.40;99.90;;;;;;4960058;28;20232;-55
2022/03/09 06:22:52;;;;;;;13.53;6.80;;;2.60;99.90;;;;;;4961599;28;20229;-55
2022/03/09 06:25:19;;;;;;;11.17;6.07;;;2.70;99.90;;;;;;4960899;28;20204;-57
2022/03/09 06:27:51;;;;;;;9.73;6.33;;;2.70;99.90;;;;;;4974981;28;20249;-56
2022/03/09 06:30:24;;;;;;;9.80;6.30;;;2.80;99.90;;;;;;4961508;28;20915;-56
2022/03/09 06:32:54;;;;;;;9.67;5.83;;;2.80;99.90;;;;;;4960423;28;20328;-55
2022/03/09 06:35:21;;;;;;;10.10;6.67;;;2.70;99.90;;;;;;4961831;28;20320;-55
2022/03/09 06:37:48;;;;;;;10.77;6.13;;;2.60;99.90;;;;;;4973962;28;20262;-56
2022/03/09 06:40:15;;;;;;;9.97;6.50;;;2.60;99.90;;;;;;4960076;28;20425;-56
2022/03/09 06:42:41;;;;;;;9.97;6.50;;;2.70;99.90;;;;;;4960193;28;20240;-56
2022/03/09 06:45:09;;;;;;;10.50;6.47;;;2.80;99.90;;;;;;4961774;28;20249;-56
2022/03/09 06:47:38;;;;;;;13.70;6.80;;;2.90;99.90;;;;;;4962223;28;20583;-56
2022/03/09 06:50:08;;;;;;;10.60;6.10;;;3.00;99.90;;;;;;4960242;28;20269;-56
2022/03/09 06:52:34;;;;;;;10.30;5.93;;;3.00;99.90;;;;;;4960783;28;20223;-55
2022/03/09 06:55:03;;;;;;;10.23;6.20;;;3.10;99.90;;;;;;4963091;28;20230;-55
2022/03/09 06:57:31;;;;;;;12.37;5.97;;;3.20;99.90;;;;;;4960166;28;20289;-55
2022/03/09 07:00:05;;;;;;;9.37;6.20;;;3.30;99.90;;;;;;4960844;28;20293;-54
2022/03/09 07:02:33;;;;;;;10.87;6.07;;;3.40;99.90;;;;;;4959055;28;20450;-57
2022/03/09 07:05:00;;;;;;;10.87;6.77;;;3.50;99.90;;;;;;4962647;28;20214;-54
2022/03/09 07:07:27;;;;;;;10.83;6.80;;;3.60;99.90;;;;;;4962075;28;20238;-54
2022/03/09 07:09:54;;;;;;;13.73;7.07;;;3.70;99.90;;;;;;4958872;28;20304;-57
2022/03/09 07:12:20;;;;;;;9.47;5.80;;;3.90;99.90;;;;;;4961422;28;20306;-55
2022/03/09 07:14:47;;;;;;;10.60;6.40;;;3.90;99.90;;;;;;4961583;28;20197;-57
2022/03/09 07:17:14;;;;;;;9.67;6.30;;;3.90;99.90;;;;;;4958949;28;20208;-56
2022/03/09 07:19:41;;;;;;;13.53;6.60;;;3.90;99.90;;;;;;4958133;28;20289;-56
2022/03/09 07:22:08;;;;;;;11.93;6.80;;;3.90;99.90;;;;;;4961613;28;20308;-58
2022/03/09 07:24:35;;;;;;;16.50;8.13;;;4.00;99.90;;;;;;4960952;28;20242;-57
2022/03/09 07:27:02;;;;;;;12.77;6.63;;;4.10;99.90;;;;;;4960659;28;20721;-57
2022/03/09 07:29:29;;;;;;;12.90;6.87;;;4.20;99.90;;;;;;4959267;28;20295;-56
2022/03/09 07:31:56;;;;;;;10.53;6.30;;;4.40;99.90;;;;;;4957767;28;20223;-57
2022/03/09 07:34:23;;;;;;;13.57;6.53;;;4.40;99.90;;;;;;4958190;28;20234;-55
2022/03/09 07:36:50;;;;;;;10.20;6.03;;;4.40;99.90;;;;;;4959478;28;20615;-56
2022/03/09 07:39:19;;;;;;;13.10;5.93;;;4.50;99.90;;;;;;4961572;28;20699;-57
2022/03/09 07:41:46;;;;;;;11.03;7.03;;;4.60;99.90;;;;;;4957216;28;20288;-56
2022/03/09 07:44:12;;;;;;;10.43;7.37;;;4.70;99.90;;;;;;4958291;28;20287;-56
2022/03/09 07:46:39;;;;;;;9.77;6.60;;;4.90;99.90;;;;;;4957731;28;20210;-57
2022/03/09 07:49:08;;;;;;;12.63;6.87;;;4.90;99.90;;;;;;4957047;28;20344;-56
2022/03/09 07:51:35;;;;;;;12.13;6.20;;;5.10;99.90;;;;;;4960054;28;20201;-57
2022/03/09 07:54:02;;;;;;;9.80;6.70;;;5.10;99.90;;;;;;4956027;28;20300;-57
2022/03/09 07:56:29;;;;;;;9.40;6.83;;;5.30;99.90;;;;;;4956302;28;20471;-57
2022/03/09 07:58:55;;;;;;;8.57;6.27;;;5.60;99.90;;;;;;4957916;28;20345;-56
2022/03/09 08:01:22;;;;;;;9.73;6.47;;;5.90;99.90;;;;;;4956052;28;20203;-56
2022/03/09 08:03:49;;;;;;;9.27;6.37;;;5.90;99.90;;;;;;4955736;28;20664;-55
2022/03/09 08:06:16;;;;;;;10.67;6.60;;;6.10;99.90;;;;;;4957330;28;20235;-55
2022/03/09 08:08:43;;;;;;;9.10;6.87;;;6.30;99.90;;;;;;4959920;28;21981;-55
2022/03/09 08:11:09;;;;;;;10.17;7.00;;;6.60;99.90;;;;;;4956790;28;20315;-56
2022/03/09 08:13:36;;;;;;;11.63;6.63;;;6.50;99.90;;;;;;4956258;28;20253;-55
2022/03/09 08:16:09;;;;;;;11.10;6.80;;;6.70;99.90;;;;;;4956254;28;20652;-55
2022/03/09 08:18:38;;;;;;;9.07;6.53;;;6.90;99.90;;;;;;4958361;28;20277;-55
2022/03/09 08:21:05;;;;;;;7.73;6.17;;;7.30;99.90;;;;;;4955194;28;20229;-55
2022/03/09 08:23:32;;;;;;;9.93;6.70;;;7.50;99.90;;;;;;4957498;28;20299;-55
2022/03/09 08:25:59;;;;;;;13.13;7.67;;;7.60;99.90;;;;;;4957751;28;20233;-54
2022/03/09 08:28:27;;;;;;;10.27;7.00;;;7.70;99.90;;;;;;4957219;28;20710;-55
2022/03/09 08:30:54;;;;;;;11.23;6.67;;;7.80;99.90;;;;;;4955186;28;20208;-55
2022/03/09 08:33:21;;;;;;;10.07;6.90;;;8.10;99.90;;;;;;4950516;28;20771;-54
2022/03/09 08:35:48;;;;;;;11.37;7.10;;;8.30;99.90;;;;;;4973438;28;20281;-56
2022/03/09 08:38:16;;;;;;;9.53;6.57;;;8.60;99.90;;;;;;4957506;28;20248;-56
2022/03/09 08:40:43;;;;;;;9.47;7.10;;;8.70;99.90;;;;;;4958383;28;20329;-55
2022/03/09 08:43:10;;;;;;;8.87;6.40;;;9.00;99.90;;;;;;4959333;28;20577;-56
2022/03/09 08:45:37;;;;;;;10.93;7.17;;;9.00;99.90;;;;;;4957263;28;20299;-55
2022/03/09 08:48:05;;;;;;;11.77;7.23;;;9.00;99.90;;;;;;4955250;28;20206;-55
2022/03/09 08:50:32;;;;;;;11.10;7.37;;;9.30;99.90;;;;;;4955965;28;20231;-55
2022/03/09 08:53:07;;;;;;;12.17;7.50;;;9.50;99.90;;;;;;4957051;28;20729;-55
2022/03/09 08:55:34;;;;;;;10.57;7.37;;;9.80;99.90;;;;;;4955093;28;20297;-55
2022/03/09 08:58:02;;;;;;;13.27;7.30;;;10.20;99.90;;;;;;4972328;28;20211;-54
2022/03/09 09:00:29;;;;;;;11.17;7.87;;;10.00;99.90;;;;;;4955952;28;20202;-56
2022/03/09 09:02:56;;;;;;;11.63;7.00;;;9.70;99.90;;;;;;4953688;28;20202;-55
2022/03/09 09:05:36;;;;;;;10.73;7.50;;;10.00;99.90;;;;;;4956275;28;20274;-55
2022/03/09 09:08:03;;;;;;;10.53;8.00;;;10.50;99.90;;;;;;4958084;28;20240;-54
2022/03/09 09:10:34;;;;;;;10.80;6.30;;;10.40;99.90;;;;;;4962097;28;20216;-54
2022/03/09 09:13:02;;;;;;;11.87;7.17;;;10.50;99.90;;;;;;4961437;28;20279;-54
2022/03/09 09:15:29;;;;;;;9.73;7.57;;;10.70;99.90;;;;;;4961721;28;20234;-55
2022/03/09 09:18:00;;;;;;;11.27;7.60;;;10.70;99.90;;;;;;4961378;28;20262;-54
2022/03/09 09:20:48;;;;;;;11.97;6.93;;;10.40;99.90;;;;;;4961705;28;20205;-55
2022/03/09 09:23:15;;;;;;;12.93;7.40;;;10.70;99.90;;;;;;4963446;28;20213;-55
2022/03/09 09:25:44;;;;;;;15.53;6.93;;;10.90;99.90;;;;;;4962670;28;20335;-54
2022/03/09 09:28:11;;;;;;;11.87;7.53;;;11.30;99.90;;;;;;4960077;28;20610;-55
2022/03/09 09:30:37;;;;;;;11.77;7.93;;;11.00;99.90;;;;;;4964110;28;20600;-55
2022/03/09 09:33:04;;;;;;;11.67;8.23;;;11.40;99.90;;;;;;4960267;28;20979;-54
2022/03/09 09:35:32;;;;;;;12.30;7.83;;;11.90;99.90;;;;;;4959834;28;20204;-54
2022/03/09 09:38:06;;;;;;;12.87;8.17;;;11.60;99.90;;;;;;4962712;28;20204;-54
2022/03/09 09:40:41;;;;;;;11.63;7.70;;;11.80;99.90;;;;;;4959589;28;20207;-54
2022/03/09 09:43:10;;;;;;;13.13;8.13;;;12.10;99.90;;;;;;4961964;28;20208;-55
2022/03/09 09:45:38;;;;;;;12.87;7.93;;;12.10;99.90;;;;;;4960377;28;20619;-54
2022/03/09 09:48:06;;;;;;;10.30;7.83;;;12.40;99.90;;;;;;4960270;28;20230;-54
2022/03/09 09:50:33;;;;;;;11.23;7.50;;;12.20;99.90;;;;;;4961943;28;20259;-54
2022/03/09 09:53:08;;;;;;;13.40;8.03;;;11.90;99.90;;;;;;4959547;28;20317;-54
2022/03/09 09:55:35;;;;;;;13.77;7.87;;;12.10;99.90;;;;;;4960065;28;20204;-54
2022/03/09 09:58:03;;;;;;;13.97;8.37;;;12.00;99.90;;;;;;4960452;28;20250;-54
2022/03/09 10:00:31;;;;;;;12.50;9.43;;;12.00;99.90;;;;;;4960563;28;20237;-54
2022/03/09 10:03:01;;;;;;;14.77;9.13;;;12.10;99.90;;;;;;4959109;28;20208;-54
2022/03/09 10:05:29;;;;;;;12.80;8.67;;;12.10;99.90;;;;;;4958863;28;20314;-53
2022/03/09 10:08:07;;;;;;;14.00;8.30;;;12.30;99.90;;;;;;4960375;28;20220;-54
2022/03/09 10:10:40;;;;;;;11.20;8.40;;;12.00;99.90;;;;;;4959784;28;20299;-54
2022/03/09 10:13:15;;;;;;;12.93;8.13;;;11.90;99.90;;;;;;4960617;28;20217;-54
2022/03/09 10:15:47;;;;;;;12.27;7.87;;;12.20;99.90;;;;;;4958824;28;20194;-55
2022/03/09 10:18:22;;;;;;;14.90;8.90;;;12.00;99.90;;;;;;4958007;28;20207;-55
2022/03/09 10:20:50;;;;;;;13.30;8.63;;;12.50;99.90;;;;;;4958195;28;20291;-54
2022/03/09 10:23:19;;;;;;;14.53;9.23;;;12.50;99.90;;;;;;4961356;28;20216;-54
2022/03/09 10:25:47;;;;;;;14.80;8.63;;;12.40;99.90;;;;;;4961405;28;20253;-54
2022/03/09 10:28:14;;;;;;;30.37;11.10;;;12.50;99.90;;;;;;4961230;28;20247;-55
2022/03/09 10:30:42;;;;;;;12.23;9.13;;;12.50;99.90;;;;;;4959590;28;20245;-55
2022/03/09 10:33:12;;;;;;;15.53;9.07;;;12.50;99.90;;;;;;4958596;28;20286;-53
2022/03/09 10:35:45;;;;;;;13.90;9.50;;;12.40;99.90;;;;;;4959227;28;20256;-53
2022/03/09 10:38:15;;;;;;;15.07;9.40;;;12.10;99.90;;;;;;4959376;28;20340;-53
2022/03/09 10:40:48;;;;;;;13.70;9.43;;;12.20;99.90;;;;;;4954307;28;20292;-53
2022/03/09 10:43:20;;;;;;;13.30;9.80;;;12.30;99.90;;;;;;4956065;28;20688;-56
2022/03/09 10:46:10;;;;;;;13.80;9.80;;;12.40;99.90;;;;;;4957632;28;20233;-53
2022/03/09 10:49:00;;;;;;;14.07;9.43;;;12.30;99.90;;;;;;4956108;28;20685;-53
2022/03/09 10:51:56;;;;;;;15.07;9.00;;;12.20;99.90;;;;;;4954612;28;20218;-53
2022/03/09 10:54:29;;;;;;;12.77;9.07;;;12.30;99.90;;;;;;4955591;28;20324;-53
2022/03/09 10:57:07;;;;;;;16.93;10.93;;;12.80;99.90;;;;;;4956798;28;20238;-55
2022/03/09 10:59:50;;;;;;;18.37;10.13;;;12.80;99.90;;;;;;4957139;28;20294;-54
2022/03/09 11:02:19;;;;;;;17.47;11.00;;;12.50;99.90;;;;;;4953454;28;20218;-54
2022/03/09 11:05:12;;;;;;;17.17;11.30;;;12.30;99.90;;;;;;4959220;28;20213;-55
2022/03/09 11:07:39;;;;;;;20.33;12.93;;;12.50;99.90;;;;;;4958370;28;20232;-54
2022/03/09 11:10:08;;;;;;;23.33;12.63;;;12.60;99.90;;;;;;4957067;28;20247;-53
2022/03/09 11:12:36;;;;;;;22.23;13.50;;;13.10;99.90;;;;;;4959025;28;20276;-55
2022/03/09 11:15:06;;;;;;;23.43;13.57;;;13.20;99.90;;;;;;4957186;28;20203;-55
2022/03/09 11:17:34;;;;;;;18.53;11.83;;;13.10;99.90;;;;;;4955702;28;20220;-54
2022/03/09 11:20:01;;;;;;;19.60;11.77;;;13.20;99.90;;;;;;4955048;28;20211;-55
2022/03/09 11:22:28;;;;;;;16.63;11.80;;;13.00;99.90;;;;;;4953385;28;20232;-54
2022/03/09 11:24:55;;;;;;;18.93;11.83;;;13.00;99.90;;;;;;4953799;28;20210;-54
2022/03/09 11:27:23;;;;;;;19.43;11.53;;;13.00;99.90;;;;;;4956589;28;20294;-54
2022/03/09 11:29:52;;;;;;;17.27;10.83;;;13.20;99.90;;;;;;4953002;28;20745;-54
2022/03/09 11:32:34;;;;;;;19.77;10.83;;;13.50;99.90;;;;;;4945552;28;21034;-53
2022/03/09 11:35:01;;;;;;;18.53;11.63;;;13.50;99.90;;;;;;4951983;28;20836;-53
2022/03/09 11:37:35;;;;;;;16.73;11.00;;;13.90;99.90;;;;;;4954184;28;20298;-53
2022/03/09 11:40:10;;;;;;;17.63;11.63;;;13.70;99.90;;;;;;4943051;28;20204;-53
2022/03/09 11:42:43;;;;;;;23.10;13.03;;;13.70;99.90;;;;;;4952218;28;20206;-53
2022/03/09 11:45:29;;;;;;;18.67;12.17;;;13.90;99.90;;;;;;4954443;28;20217;-54
2022/03/09 11:48:11;;;;;;;17.37;11.90;;;13.90;99.90;;;;;;4952854;28;20206;-53
2022/03/09 11:50:46;;;;;;;21.80;12.13;;;14.50;99.90;;;;;;4955755;28;20630;-54
2022/03/09 11:53:14;;;;;;;19.73;12.70;;;13.90;99.90;;;;;;4954231;28;20225;-53
2022/03/09 11:55:41;;;;;;;17.63;11.40;;;13.80;99.90;;;;;;4952266;28;20249;-53
2022/03/09 11:58:12;;;;;;;18.57;12.03;;;14.20;99.90;;;;;;4955540;28;20297;-54
2022/03/09 12:01:02;;;;;;;19.87;12.47;;;14.40;99.90;;;;;;4956994;28;20279;-53
2022/03/09 12:03:40;;;;;;;18.97;12.50;;;14.80;99.90;;;;;;4955455;28;20285;-53
2022/03/09 12:06:43;;;;;;;22.30;12.97;;;15.40;99.90;;;;;;4958196;28;20254;-53
2022/03/09 12:09:10;;;;;;;19.03;12.27;;;15.10;99.90;;;;;;4958604;28;20302;-54
2022/03/09 12:12:05;;;;;;;21.13;11.80;;;15.20;99.90;;;;;;4953890;28;20298;-53
2022/03/09 12:14:58;;;;;;;20.67;12.83;;;15.20;99.90;;;;;;4954710;28;20267;-53
2022/03/09 12:17:32;;;;;;;21.03;13.30;;;15.60;99.90;;;;;;4954891;28;20207;-54
2022/03/09 12:20:19;;;;;;;20.63;13.70;;;15.90;99.90;;;;;;4958576;28;20245;-54
2022/03/09 12:22:59;;;;;;;18.07;12.83;;;15.50;99.90;;;;;;4957035;28;20305;-54
2022/03/09 12:25:36;;;;;;;23.23;13.00;;;15.90;99.90;;;;;;4958853;28;20274;-54
2022/03/09 12:28:27;;;;;;;22.10;13.10;;;15.70;99.90;;;;;;4958557;28;20304;-54
2022/03/09 12:30:59;;;;;;;20.57;13.33;;;15.60;99.90;;;;;;4959381;28;20235;-53
2022/03/09 12:33:30;;;;;;;22.03;13.33;;;16.10;99.90;;;;;;4958102;28;20247;-53
2022/03/09 12:36:17;;;;;;;25.63;14.47;;;16.30;99.90;;;;;;4959728;28;20284;-54
2022/03/09 12:39:03;;;;;;;20.47;13.47;;;16.60;99.90;;;;;;4959528;28;20684;-54
2022/03/09 12:41:41;;;;;;;21.77;12.87;;;16.50;99.90;;;;;;4961566;28;20517;-54
2022/03/09 12:44:18;;;;;;;21.03;13.83;;;16.90;99.90;;;;;;4958812;28;20232;-54
2022/03/09 12:46:50;;;;;;;17.87;12.33;;;17.00;99.90;;;;;;4959904;28;20633;-54
2022/03/09 12:49:18;;;;;;;20.30;13.27;;;16.90;99.90;;;;;;4959568;28;20851;-53
2022/03/09 12:51:53;;;;;;;23.33;13.30;;;17.00;99.90;;;;;;4959396;28;20204;-54
2022/03/09 12:54:33;;;;;;;23.77;14.33;;;17.10;99.90;;;;;;4960953;28;20724;-53
2022/03/09 12:57:14;;;;;;;20.77;14.10;;;16.50;99.90;;;;;;4959313;28;20205;-53
2022/03/09 12:59:53;;;;;;;18.93;12.27;;;16.70;99.90;;;;;;4961121;28;20755;-53